Izki — V7XV2 — position and weather

sailwx.info

Track history (hours):
 
Tides and Currents Weather Stations Pressure Air Temp Water Temp Dewpoint Dewpoint Depression Visibility Wind Speed Wind Dir Waves Ship Positions

Izki

Last reported at 2017-Feb-21 15:33 UTC. Time now 2017-Mar-27 00:51 UTC.
Position N 02°03' E 102°08'.
Warning: this ship's position is 33 days out of date.

Length 333 m; draft 11 m.

Type: Tanker. MMSI: 538004578.

Date/timePositionNaut miles runAvg speedWind from/ knotsBaromVisibWave heightAir tempDewpointWater temp
2017-Feb-21 15:33N 02°03' E 102°08'1110.7
2017-Feb-21 14:32N 01°56' E 102°16'1010.6
2017-Feb-21 13:33N 01°52' E 102°25'1010.4
2017-Feb-21 12:33N 01°47' E 102°35'1010.3
2017-Feb-21 11:33N 01°43' E 102°44'4410.2
2017-Feb-21 07:12N 01°17' E 103°20'912.1
2017-Feb-21 06:25N 01°13' E 103°29'1112.0
2017-Feb-21 05:30N 01°11' E 103°39'9 9.2
2017-Feb-21 04:33N 01°10' E 103°48'10 9.6
2017-Feb-21 03:33N 01°14' E 103°57'8 8.1
2017-Feb-21 02:34N 01°17' E 104°05'1 0.3
2017-Feb-21 00:17N 01°18' E 104°05'0 0.0
2017-Feb-20 04:33N 01°17' E 104°05'  
2017-Feb-11 16:07N 38°45' E 122°05'813.6
2017-Feb-11 15:33N 38°49' E 121°57'  
Track history (hours):
 
Tides and Currents Weather Stations Pressure Air Temp Water Temp Dewpoint Dewpoint Depression Visibility Wind Speed Wind Dir Waves Ship Positions

Izki

Last reported at 2017-Feb-21 15:33 UTC. Time now 2017-Mar-27 00:51 UTC.
Position N 02°03' E 102°08'.
Warning: this ship's position is 33 days out of date.

Length 333 m; draft 11 m.

Type: Tanker. MMSI: 538004578.

Date/timePositionNaut miles runAvg speedWind from/ knotsBaromVisibWave heightAir tempDewpointWater temp
2017-Feb-21 15:33N 02°03' E 102°08'1110.7
2017-Feb-21 14:32N 01°56' E 102°16'1010.6
2017-Feb-21 13:33N 01°52' E 102°25'1010.4
2017-Feb-21 12:33N 01°47' E 102°35'1010.3
2017-Feb-21 11:33N 01°43' E 102°44'4410.2
2017-Feb-21 07:12N 01°17' E 103°20'912.1
2017-Feb-21 06:25N 01°13' E 103°29'1112.0
2017-Feb-21 05:30N 01°11' E 103°39'9 9.2
2017-Feb-21 04:33N 01°10' E 103°48'10 9.6
2017-Feb-21 03:33N 01°14' E 103°57'8 8.1
2017-Feb-21 02:34N 01°17' E 104°05'1 0.3
2017-Feb-21 00:17N 01°18' E 104°05'0 0.0
2017-Feb-20 04:33N 01°17' E 104°05'  
2017-Feb-11 16:07N 38°45' E 122°05'813.6
2017-Feb-11 15:33N 38°49' E 121°57'  

Dump ship's entire track history